sensor_id;sensor_type;location;lat;lon;timestamp;pressure;altitude;pressure_sealevel;temperature;humidity
34983;BME280;21187;50.976;13.720;2023-07-13T00:01:41;97970.59;;;24.97;35.85
34983;BME280;21187;50.976;13.720;2023-07-13T00:06:45;97960.16;;;25.01;35.52
34983;BME280;21187;50.976;13.720;2023-07-13T00:11:51;97962.34;;;25.06;35.63
34983;BME280;21187;50.976;13.720;2023-07-13T00:16:54;97976.13;;;24.97;35.71
34983;BME280;21187;50.976;13.720;2023-07-13T00:21:56;98022.25;;;24.56;36.38
34983;BME280;21187;50.976;13.720;2023-07-13T00:26:58;98043.72;;;24.17;37.12
34983;BME280;21187;50.976;13.720;2023-07-13T00:32:00;98039.75;;;23.92;38.18
34983;BME280;21187;50.976;13.720;2023-07-13T00:37:02;98066.50;;;23.69;39.52
34983;BME280;21187;50.976;13.720;2023-07-13T00:42:04;98091.63;;;23.33;41.27
34983;BME280;21187;50.976;13.720;2023-07-13T00:47:06;98101.25;;;22.82;42.93
34983;BME280;21187;50.976;13.720;2023-07-13T00:52:09;98065.59;;;22.88;42.98
34983;BME280;21187;50.976;13.720;2023-07-13T00:57:15;98035.72;;;23.12;42.86
34983;BME280;21187;50.976;13.720;2023-07-13T01:02:18;98002.31;;;23.23;42.78
34983;BME280;21187;50.976;13.720;2023-07-13T01:07:22;98001.53;;;23.22;42.74
34983;BME280;21187;50.976;13.720;2023-07-13T01:12:24;98011.91;;;23.18;42.81
34983;BME280;21187;50.976;13.720;2023-07-13T01:17:28;98005.72;;;23.14;43.12
34983;BME280;21187;50.976;13.720;2023-07-13T01:22:30;98020.94;;;23.06;42.96
34983;BME280;21187;50.976;13.720;2023-07-13T01:27:34;98009.22;;;23.02;43.45
34983;BME280;21187;50.976;13.720;2023-07-13T01:32:36;98000.22;;;22.85;43.45
34983;BME280;21187;50.976;13.720;2023-07-13T01:37:38;98004.47;;;22.73;43.61
34983;BME280;21187;50.976;13.720;2023-07-13T01:42:42;98003.22;;;22.61;44.20
34983;BME280;21187;50.976;13.720;2023-07-13T01:47:44;98008.91;;;22.54;44.39
34983;BME280;21187;50.976;13.720;2023-07-13T01:52:47;98001.88;;;22.53;44.59
34983;BME280;21187;50.976;13.720;2023-07-13T01:57:49;97988.75;;;22.57;44.67
34983;BME280;21187;50.976;13.720;2023-07-13T02:02:51;97982.00;;;22.58;44.79
34983;BME280;21187;50.976;13.720;2023-07-13T02:07:53;97996.22;;;22.56;44.66
34983;BME280;21187;50.976;13.720;2023-07-13T02:12:55;97993.16;;;22.54;44.97
34983;BME280;21187;50.976;13.720;2023-07-13T02:17:57;97980.47;;;22.57;45.01
34983;BME280;21187;50.976;13.720;2023-07-13T02:23:00;97987.88;;;22.60;45.07
34983;BME280;21187;50.976;13.720;2023-07-13T02:28:02;97991.59;;;22.53;45.04
34983;BME280;21187;50.976;13.720;2023-07-13T02:33:05;97987.72;;;22.51;45.45
34983;BME280;21187;50.976;13.720;2023-07-13T02:38:07;97982.63;;;22.49;45.26
34983;BME280;21187;50.976;13.720;2023-07-13T02:43:10;97990.13;;;22.49;45.43
34983;BME280;21187;50.976;13.720;2023-07-13T02:48:13;97988.59;;;22.48;45.63
34983;BME280;21187;50.976;13.720;2023-07-13T02:53:15;97992.72;;;22.39;45.94
34983;BME280;21187;50.976;13.720;2023-07-13T02:58:18;98001.69;;;22.27;46.16
34983;BME280;21187;50.976;13.720;2023-07-13T03:03:20;98011.00;;;22.17;46.60
34983;BME280;21187;50.976;13.720;2023-07-13T03:08:22;98009.13;;;21.81;47.66
34983;BME280;21187;50.976;13.720;2023-07-13T03:13:27;98005.91;;;21.45;48.47
34983;BME280;21187;50.976;13.720;2023-07-13T03:18:29;98007.84;;;21.28;49.17
34983;BME280;21187;50.976;13.720;2023-07-13T03:23:36;98004.38;;;21.08;49.78
34983;BME280;21187;50.976;13.720;2023-07-13T03:28:38;98020.59;;;20.82;50.65
34983;BME280;21187;50.976;13.720;2023-07-13T03:33:43;98018.41;;;20.73;50.87
34983;BME280;21187;50.976;13.720;2023-07-13T03:38:47;98019.88;;;20.98;50.20
34983;BME280;21187;50.976;13.720;2023-07-13T03:43:52;98022.22;;;21.20;49.68
34983;BME280;21187;50.976;13.720;2023-07-13T03:48:57;98015.50;;;21.21;49.69
34983;BME280;21187;50.976;13.720;2023-07-13T03:53:59;98021.72;;;21.05;50.01
34983;BME280;21187;50.976;13.720;2023-07-13T03:59:02;98023.50;;;20.95;50.36
34983;BME280;21187;50.976;13.720;2023-07-13T04:04:04;98038.94;;;20.65;51.53
34983;BME280;21187;50.976;13.720;2023-07-13T04:09:06;98051.47;;;20.46;52.56
34983;BME280;21187;50.976;13.720;2023-07-13T04:14:08;98051.91;;;20.44;52.66
34983;BME280;21187;50.976;13.720;2023-07-13T04:19:10;98057.28;;;20.52;52.75
34983;BME280;21187;50.976;13.720;2023-07-13T04:24:12;98068.88;;;20.63;52.95
34983;BME280;21187;50.976;13.720;2023-07-13T04:29:14;98065.03;;;20.81;52.16
34983;BME280;21187;50.976;13.720;2023-07-13T04:34:16;98065.84;;;21.01;51.81
34983;BME280;21187;50.976;13.720;2023-07-13T04:39:18;98064.63;;;21.02;52.02
34983;BME280;21187;50.976;13.720;2023-07-13T04:44:20;98064.88;;;21.11;51.71
34983;BME280;21187;50.976;13.720;2023-07-13T04:49:22;98068.44;;;21.28;51.32
34983;BME280;21187;50.976;13.720;2023-07-13T04:54:24;98073.03;;;21.35;51.53
34983;BME280;21187;50.976;13.720;2023-07-13T04:59:26;98077.00;;;21.34;51.83
34983;BME280;21187;50.976;13.720;2023-07-13T05:04:28;98085.25;;;21.14;52.74
34983;BME280;21187;50.976;13.720;2023-07-13T05:09:30;98082.81;;;21.20;52.67
34983;BME280;21187;50.976;13.720;2023-07-13T05:14:32;98087.38;;;21.26;52.42
34983;BME280;21187;50.976;13.720;2023-07-13T05:19:34;98097.34;;;21.40;52.16
34983;BME280;21187;50.976;13.720;2023-07-13T05:24:36;98087.88;;;21.61;51.65
34983;BME280;21187;50.976;13.720;2023-07-13T05:29:38;98089.38;;;21.83;51.36
34983;BME280;21187;50.976;13.720;2023-07-13T05:34:40;98095.44;;;21.94;51.08
34983;BME280;21187;50.976;13.720;2023-07-13T05:39:41;98091.88;;;22.14;50.89
34983;BME280;21187;50.976;13.720;2023-07-13T05:44:43;98087.56;;;22.29;50.45
34983;BME280;21187;50.976;13.720;2023-07-13T05:49:45;98089.13;;;22.47;50.17
34983;BME280;21187;50.976;13.720;2023-07-13T05:54:47;98092.53;;;22.67;49.91
34983;BME280;21187;50.976;13.720;2023-07-13T05:59:49;98086.66;;;22.82;49.37
34983;BME280;21187;50.976;13.720;2023-07-13T06:04:51;98094.94;;;22.82;49.37
34983;BME280;21187;50.976;13.720;2023-07-13T06:09:53;98100.28;;;22.89;49.23
34983;BME280;21187;50.976;13.720;2023-07-13T06:14:55;98103.34;;;23.07;49.22
34983;BME280;21187;50.976;13.720;2023-07-13T06:19:57;98113.31;;;23.34;48.94
34983;BME280;21187;50.976;13.720;2023-07-13T06:24:59;98104.72;;;23.58;48.80
34983;BME280;21187;50.976;13.720;2023-07-13T06:30:01;98110.41;;;23.80;48.60
34983;BME280;21187;50.976;13.720;2023-07-13T06:35:03;98110.88;;;24.04;47.73
34983;BME280;21187;50.976;13.720;2023-07-13T06:40:06;98105.66;;;24.32;46.96
34983;BME280;21187;50.976;13.720;2023-07-13T06:45:08;98116.53;;;24.39;47.02
34983;BME280;21187;50.976;13.720;2023-07-13T06:50:10;98125.38;;;24.60;46.69
34983;BME280;21187;50.976;13.720;2023-07-13T06:55:12;98140.41;;;24.59;46.73
34983;BME280;21187;50.976;13.720;2023-07-13T07:00:14;98143.75;;;24.54;45.64
34983;BME280;21187;50.976;13.720;2023-07-13T07:05:16;98137.13;;;24.38;46.06
34983;BME280;21187;50.976;13.720;2023-07-13T07:10:19;98146.41;;;24.45;46.08
34983;BME280;21187;50.976;13.720;2023-07-13T07:15:22;98156.81;;;24.66;45.85
34983;BME280;21187;50.976;13.720;2023-07-13T07:20:24;98151.16;;;24.70;44.05
34983;BME280;21187;50.976;13.720;2023-07-13T07:25:26;98148.63;;;24.50;43.89
34983;BME280;21187;50.976;13.720;2023-07-13T07:30:28;98151.28;;;24.40;44.34
34983;BME280;21187;50.976;13.720;2023-07-13T07:35:33;98158.81;;;24.53;43.32
34983;BME280;21187;50.976;13.720;2023-07-13T07:40:43;98150.16;;;24.77;43.06
34983;BME280;21187;50.976;13.720;2023-07-13T07:45:48;98157.56;;;25.15;42.55
34983;BME280;21187;50.976;13.720;2023-07-13T07:50:50;98151.44;;;25.55;41.46
34983;BME280;21187;50.976;13.720;2023-07-13T07:55:52;98149.81;;;25.67;40.28
34983;BME280;21187;50.976;13.720;2023-07-13T08:01:04;98132.78;;;25.78;39.17
34983;BME280;21187;50.976;13.720;2023-07-13T08:06:09;98154.09;;;25.90;39.21
34983;BME280;21187;50.976;13.720;2023-07-13T08:11:14;98151.50;;;26.18;39.05
34983;BME280;21187;50.976;13.720;2023-07-13T08:16:19;98150.31;;;26.28;38.26
34983;BME280;21187;50.976;13.720;2023-07-13T08:21:21;98158.66;;;26.37;38.09
34983;BME280;21187;50.976;13.720;2023-07-13T08:26:23;98156.59;;;26.69;38.03
34983;BME280;21187;50.976;13.720;2023-07-13T08:31:26;98155.91;;;27.06;37.24
34983;BME280;21187;50.976;13.720;2023-07-13T08:36:28;98153.25;;;27.30;36.56
34983;BME280;21187;50.976;13.720;2023-07-13T08:41:31;98160.53;;;27.55;36.58
34983;BME280;21187;50.976;13.720;2023-07-13T08:46:38;98143.94;;;27.89;35.37
34983;BME280;21187;50.976;13.720;2023-07-13T08:56:47;98155.66;;;28.02;34.70
34983;BME280;21187;50.976;13.720;2023-07-13T09:07:57;98163.41;;;27.89;34.39
34983;BME280;21187;50.976;13.720;2023-07-13T09:18:38;98169.50;;;28.21;34.08
34983;BME280;21187;50.976;13.720;2023-07-13T09:23:42;98179.34;;;28.41;33.61
34983;BME280;21187;50.976;13.720;2023-07-13T09:28:48;98177.19;;;28.35;32.23
34983;BME280;21187;50.976;13.720;2023-07-13T09:33:51;98195.91;;;27.73;32.66
34983;BME280;21187;50.976;13.720;2023-07-13T09:44:17;98188.78;;;27.72;32.99
34983;BME280;21187;50.976;13.720;2023-07-13T09:49:26;98197.91;;;27.82;32.57
34983;BME280;21187;50.976;13.720;2023-07-13T09:54:28;98208.84;;;27.86;33.04
34983;BME280;21187;50.976;13.720;2023-07-13T09:59:36;98200.47;;;27.95;32.61
34983;BME280;21187;50.976;13.720;2023-07-13T10:04:41;98204.53;;;27.94;32.33
34983;BME280;21187;50.976;13.720;2023-07-13T10:09:42;98206.84;;;28.05;31.77
34983;BME280;21187;50.976;13.720;2023-07-13T10:14:44;98206.78;;;28.23;31.53
34983;BME280;21187;50.976;13.720;2023-07-13T10:19:47;98204.53;;;28.03;31.67
34983;BME280;21187;50.976;13.720;2023-07-13T10:24:49;98214.72;;;28.06;31.75
34983;BME280;21187;50.976;13.720;2023-07-13T10:29:58;98207.91;;;28.17;31.69
34983;BME280;21187;50.976;13.720;2023-07-13T10:35:03;98212.94;;;28.28;31.66
34983;BME280;21187;50.976;13.720;2023-07-13T10:40:07;98190.31;;;28.01;30.77
34983;BME280;21187;50.976;13.720;2023-07-13T10:45:16;98197.25;;;27.97;30.10
34983;BME280;21187;50.976;13.720;2023-07-13T10:50:22;98193.72;;;27.87;30.68
34983;BME280;21187;50.976;13.720;2023-07-13T10:55:40;98189.69;;;27.88;30.27
34983;BME280;21187;50.976;13.720;2023-07-13T11:16:43;98181.28;;;28.59;29.54
34983;BME280;21187;50.976;13.720;2023-07-13T11:27:43;98179.75;;;28.82;29.46
34983;BME280;21187;50.976;13.720;2023-07-13T11:32:43;98186.03;;;29.16;28.55
34983;BME280;21187;50.976;13.720;2023-07-13T11:37:46;98183.03;;;29.44;28.00
34983;BME280;21187;50.976;13.720;2023-07-13T11:42:48;98183.63;;;29.48;28.17
34983;BME280;21187;50.976;13.720;2023-07-13T11:47:50;98201.91;;;29.49;28.34
34983;BME280;21187;50.976;13.720;2023-07-13T11:52:54;98179.94;;;29.42;28.14
34983;BME280;21187;50.976;13.720;2023-07-13T11:57:59;98169.94;;;29.35;28.29
34983;BME280;21187;50.976;13.720;2023-07-13T12:03:03;98181.91;;;29.50;28.18
34983;BME280;21187;50.976;13.720;2023-07-13T12:08:10;98168.25;;;29.82;27.45
34983;BME280;21187;50.976;13.720;2023-07-13T12:13:26;98159.78;;;30.07;27.34
34983;BME280;21187;50.976;13.720;2023-07-13T12:18:30;98156.22;;;30.21;26.87
34983;BME280;21187;50.976;13.720;2023-07-13T12:23:34;98155.50;;;30.26;27.00
34983;BME280;21187;50.976;13.720;2023-07-13T12:28:43;98168.56;;;29.99;26.95
34983;BME280;21187;50.976;13.720;2023-07-13T12:33:45;98177.47;;;29.59;27.33
34983;BME280;21187;50.976;13.720;2023-07-13T12:38:47;98175.91;;;29.28;28.10
34983;BME280;21187;50.976;13.720;2023-07-13T12:43:49;98172.38;;;29.18;28.00
34983;BME280;21187;50.976;13.720;2023-07-13T12:48:53;98167.47;;;29.13;28.36
34983;BME280;21187;50.976;13.720;2023-07-13T12:54:18;98163.34;;;29.23;28.16
34983;BME280;21187;50.976;13.720;2023-07-13T12:59:22;98166.28;;;29.29;27.70
34983;BME280;21187;50.976;13.720;2023-07-13T13:04:25;98165.44;;;29.13;27.60
34983;BME280;21187;50.976;13.720;2023-07-13T13:09:27;98169.53;;;29.27;27.54
34983;BME280;21187;50.976;13.720;2023-07-13T13:14:29;98167.47;;;29.52;27.43
34983;BME280;21187;50.976;13.720;2023-07-13T13:19:31;98167.09;;;29.59;27.21
34983;BME280;21187;50.976;13.720;2023-07-13T13:24:33;98166.44;;;29.64;26.96
34983;BME280;21187;50.976;13.720;2023-07-13T13:29:38;98159.97;;;29.73;26.71
34983;BME280;21187;50.976;13.720;2023-07-13T13:34:41;98158.31;;;29.81;26.50
34983;BME280;21187;50.976;13.720;2023-07-13T13:39:44;98165.47;;;29.67;26.36
34983;BME280;21187;50.976;13.720;2023-07-13T13:44:59;98169.00;;;29.53;26.92
34983;BME280;21187;50.976;13.720;2023-07-13T13:50:01;98169.75;;;29.38;26.34
34983;BME280;21187;50.976;13.720;2023-07-13T13:55:11;98160.28;;;29.21;26.35
34983;BME280;21187;50.976;13.720;2023-07-13T14:00:14;98150.06;;;29.18;26.84
34983;BME280;21187;50.976;13.720;2023-07-13T14:05:23;98160.09;;;29.25;26.87
34983;BME280;21187;50.976;13.720;2023-07-13T14:10:27;98161.69;;;29.41;26.33
34983;BME280;21187;50.976;13.720;2023-07-13T14:15:30;98174.97;;;29.46;26.77
34983;BME280;21187;50.976;13.720;2023-07-13T14:20:35;98173.13;;;29.43;26.88
34983;BME280;21187;50.976;13.720;2023-07-13T14:25:37;98165.50;;;29.28;26.58
34983;BME280;21187;50.976;13.720;2023-07-13T14:30:39;98160.13;;;29.40;26.67
34983;BME280;21187;50.976;13.720;2023-07-13T14:35:41;98159.97;;;29.43;26.86
34983;BME280;21187;50.976;13.720;2023-07-13T14:40:44;98146.28;;;29.30;26.29
34983;BME280;21187;50.976;13.720;2023-07-13T14:45:48;98151.84;;;29.30;25.94
34983;BME280;21187;50.976;13.720;2023-07-13T14:50:56;98151.78;;;29.15;25.83
34983;BME280;21187;50.976;13.720;2023-07-13T14:55:59;98174.34;;;28.78;26.30
34983;BME280;21187;50.976;13.720;2023-07-13T15:01:01;98175.31;;;28.75;26.43
34983;BME280;21187;50.976;13.720;2023-07-13T15:06:03;98167.25;;;28.77;26.88
34983;BME280;21187;50.976;13.720;2023-07-13T15:11:09;98154.97;;;28.84;26.57
34983;BME280;21187;50.976;13.720;2023-07-13T15:16:24;98160.00;;;28.95;26.33
34983;BME280;21187;50.976;13.720;2023-07-13T15:21:27;98168.47;;;29.00;26.04
34983;BME280;21187;50.976;13.720;2023-07-13T15:26:33;98171.75;;;28.99;26.33
34983;BME280;21187;50.976;13.720;2023-07-13T15:31:35;98172.28;;;28.88;26.01
34983;BME280;21187;50.976;13.720;2023-07-13T15:36:38;98172.88;;;28.92;26.12
34983;BME280;21187;50.976;13.720;2023-07-13T15:41:41;98169.03;;;28.89;25.82
34983;BME280;21187;50.976;13.720;2023-07-13T15:46:47;98168.97;;;28.75;25.79
34983;BME280;21187;50.976;13.720;2023-07-13T15:51:49;98166.13;;;28.84;25.68
34983;BME280;21187;50.976;13.720;2023-07-13T15:56:53;98168.84;;;28.93;25.16
34983;BME280;21187;50.976;13.720;2023-07-13T16:01:56;98184.94;;;28.98;25.22
34983;BME280;21187;50.976;13.720;2023-07-13T16:06:58;98173.78;;;28.98;24.91
34983;BME280;21187;50.976;13.720;2023-07-13T16:12:00;98182.41;;;29.00;24.69
34983;BME280;21187;50.976;13.720;2023-07-13T16:17:02;98180.66;;;28.88;24.73
34983;BME280;21187;50.976;13.720;2023-07-13T16:22:05;98178.84;;;28.76;24.57
34983;BME280;21187;50.976;13.720;2023-07-13T16:27:08;98172.13;;;28.58;24.45
34983;BME280;21187;50.976;13.720;2023-07-13T16:32:12;98184.56;;;28.48;24.61
34983;BME280;21187;50.976;13.720;2023-07-13T16:37:16;98199.53;;;28.50;24.22
34983;BME280;21187;50.976;13.720;2023-07-13T16:42:19;98197.44;;;28.36;24.42
34983;BME280;21187;50.976;13.720;2023-07-13T16:47:22;98202.25;;;28.35;24.38
34983;BME280;21187;50.976;13.720;2023-07-13T16:52:27;98214.00;;;28.39;24.26
34983;BME280;21187;50.976;13.720;2023-07-13T16:57:32;98203.66;;;28.31;24.28
34983;BME280;21187;50.976;13.720;2023-07-13T17:02:37;98208.03;;;28.22;24.19
34983;BME280;21187;50.976;13.720;2023-07-13T17:07:41;98217.78;;;28.18;24.55
34983;BME280;21187;50.976;13.720;2023-07-13T17:12:45;98212.03;;;28.21;24.48
34983;BME280;21187;50.976;13.720;2023-07-13T17:17:49;98216.22;;;28.26;24.49
34983;BME280;21187;50.976;13.720;2023-07-13T17:22:53;98228.59;;;28.25;24.27
34983;BME280;21187;50.976;13.720;2023-07-13T17:27:55;98223.69;;;28.11;24.65
34983;BME280;21187;50.976;13.720;2023-07-13T17:32:57;98226.94;;;28.09;24.62
34983;BME280;21187;50.976;13.720;2023-07-13T17:38:01;98224.91;;;28.10;24.70
34983;BME280;21187;50.976;13.720;2023-07-13T17:43:04;98235.44;;;28.05;24.82
34983;BME280;21187;50.976;13.720;2023-07-13T17:48:09;98232.84;;;28.02;24.85
34983;BME280;21187;50.976;13.720;2023-07-13T17:53:16;98233.13;;;27.95;24.95
34983;BME280;21187;50.976;13.720;2023-07-13T17:58:18;98249.97;;;27.91;24.92
34983;BME280;21187;50.976;13.720;2023-07-13T18:03:26;98233.47;;;27.87;25.13
34983;BME280;21187;50.976;13.720;2023-07-13T18:08:36;98244.41;;;27.82;25.40
34983;BME280;21187;50.976;13.720;2023-07-13T18:13:39;98247.22;;;27.63;25.50
34983;BME280;21187;50.976;13.720;2023-07-13T18:18:42;98257.44;;;27.38;25.54
34983;BME280;21187;50.976;13.720;2023-07-13T18:23:47;98263.56;;;27.33;25.63
34983;BME280;21187;50.976;13.720;2023-07-13T18:28:49;98267.72;;;27.29;25.59
34983;BME280;21187;50.976;13.720;2023-07-13T18:33:53;98270.34;;;27.23;25.75
34983;BME280;21187;50.976;13.720;2023-07-13T18:38:57;98264.94;;;27.19;25.78
34983;BME280;21187;50.976;13.720;2023-07-13T18:44:00;98271.88;;;27.15;25.67
34983;BME280;21187;50.976;13.720;2023-07-13T18:49:03;98272.31;;;27.13;25.67
34983;BME280;21187;50.976;13.720;2023-07-13T18:54:13;98280.22;;;27.05;25.77
34983;BME280;21187;50.976;13.720;2023-07-13T18:59:16;98295.56;;;26.88;26.18
34983;BME280;21187;50.976;13.720;2023-07-13T19:04:36;98298.25;;;26.69;26.45
34983;BME280;21187;50.976;13.720;2023-07-13T19:09:39;98303.00;;;26.60;26.45
34983;BME280;21187;50.976;13.720;2023-07-13T19:14:42;98319.03;;;26.55;26.89
34983;BME280;21187;50.976;13.720;2023-07-13T19:19:50;98326.53;;;26.46;26.90
34983;BME280;21187;50.976;13.720;2023-07-13T19:24:52;98323.69;;;26.36;27.12
34983;BME280;21187;50.976;13.720;2023-07-13T19:29:54;98343.06;;;26.27;27.25
34983;BME280;21187;50.976;13.720;2023-07-13T19:34:56;98347.81;;;26.17;27.72
34983;BME280;21187;50.976;13.720;2023-07-13T19:39:58;98347.84;;;26.04;27.82
34983;BME280;21187;50.976;13.720;2023-07-13T19:45:00;98355.50;;;26.00;27.92
34983;BME280;21187;50.976;13.720;2023-07-13T19:50:03;98365.97;;;25.96;28.12
34983;BME280;21187;50.976;13.720;2023-07-13T19:55:10;98366.53;;;25.91;28.23
34983;BME280;21187;50.976;13.720;2023-07-13T20:00:25;98368.31;;;25.85;28.38
34983;BME280;21187;50.976;13.720;2023-07-13T20:05:28;98374.22;;;25.74;28.35
34983;BME280;21187;50.976;13.720;2023-07-13T20:10:31;98376.47;;;25.66;28.42
34983;BME280;21187;50.976;13.720;2023-07-13T20:15:35;98378.03;;;25.54;28.88
34983;BME280;21187;50.976;13.720;2023-07-13T20:20:39;98369.75;;;25.41;28.92
34983;BME280;21187;50.976;13.720;2023-07-13T20:25:43;98385.41;;;25.35;29.15
34983;BME280;21187;50.976;13.720;2023-07-13T20:30:47;98392.69;;;25.29;29.38
34983;BME280;21187;50.976;13.720;2023-07-13T20:35:49;98392.59;;;25.20;29.32
34983;BME280;21187;50.976;13.720;2023-07-13T20:40:51;98400.13;;;25.06;29.23
34983;BME280;21187;50.976;13.720;2023-07-13T20:45:59;98396.56;;;24.93;29.37
34983;BME280;21187;50.976;13.720;2023-07-13T20:51:02;98417.59;;;24.78;29.66
34983;BME280;21187;50.976;13.720;2023-07-13T20:56:11;98405.16;;;24.69;30.03
34983;BME280;21187;50.976;13.720;2023-07-13T21:01:31;98405.34;;;24.62;29.91
34983;BME280;21187;50.976;13.720;2023-07-13T21:06:34;98427.69;;;24.55;30.26
34983;BME280;21187;50.976;13.720;2023-07-13T21:11:37;98424.78;;;24.46;30.05
34983;BME280;21187;50.976;13.720;2023-07-13T21:16:41;98425.78;;;24.39;30.23
34983;BME280;21187;50.976;13.720;2023-07-13T21:21:43;98432.25;;;24.32;30.40
34983;BME280;21187;50.976;13.720;2023-07-13T21:26:45;98438.19;;;24.18;30.74
34983;BME280;21187;50.976;13.720;2023-07-13T21:31:47;98453.44;;;23.93;31.12
34983;BME280;21187;50.976;13.720;2023-07-13T21:36:49;98461.50;;;23.67;31.75
34983;BME280;21187;50.976;13.720;2023-07-13T21:41:52;98471.97;;;23.59;31.81
34983;BME280;21187;50.976;13.720;2023-07-13T21:46:54;98472.06;;;23.56;31.87
34983;BME280;21187;50.976;13.720;2023-07-13T21:51:57;98486.53;;;23.27;32.63
34983;BME280;21187;50.976;13.720;2023-07-13T21:56:59;98490.50;;;23.26;33.03
34983;BME280;21187;50.976;13.720;2023-07-13T22:02:01;98494.81;;;23.27;32.88
34983;BME280;21187;50.976;13.720;2023-07-13T22:07:03;98492.47;;;23.25;33.11
34983;BME280;21187;50.976;13.720;2023-07-13T22:12:07;98492.56;;;23.22;33.20
34983;BME280;21187;50.976;13.720;2023-07-13T22:17:12;98508.44;;;23.18;33.47
34983;BME280;21187;50.976;13.720;2023-07-13T22:22:14;98510.50;;;23.14;33.73
34983;BME280;21187;50.976;13.720;2023-07-13T22:27:16;98511.03;;;22.85;34.22
34983;BME280;21187;50.976;13.720;2023-07-13T22:32:19;98508.56;;;22.70;34.52
34983;BME280;21187;50.976;13.720;2023-07-13T22:37:21;98514.78;;;22.74;34.57
34983;BME280;21187;50.976;13.720;2023-07-13T22:42:23;98517.91;;;22.76;34.67
34983;BME280;21187;50.976;13.720;2023-07-13T22:47:25;98522.56;;;22.80;34.49
34983;BME280;21187;50.976;13.720;2023-07-13T22:52:27;98525.66;;;22.82;34.74
34983;BME280;21187;50.976;13.720;2023-07-13T22:57:28;98526.75;;;22.68;35.12
34983;BME280;21187;50.976;13.720;2023-07-13T23:02:30;98524.72;;;22.48;35.33
34983;BME280;21187;50.976;13.720;2023-07-13T23:07:32;98530.78;;;22.39;35.69
34983;BME280;21187;50.976;13.720;2023-07-13T23:12:35;98529.47;;;22.48;35.66
34983;BME280;21187;50.976;13.720;2023-07-13T23:17:38;98527.13;;;22.46;35.84
34983;BME280;21187;50.976;13.720;2023-07-13T23:22:41;98530.44;;;22.37;36.12
34983;BME280;21187;50.976;13.720;2023-07-13T23:27:43;98528.91;;;22.33;36.22
34983;BME280;21187;50.976;13.720;2023-07-13T23:32:46;98517.16;;;22.28;36.24
34983;BME280;21187;50.976;13.720;2023-07-13T23:37:49;98518.03;;;22.22;36.45
34983;BME280;21187;50.976;13.720;2023-07-13T23:42:51;98518.03;;;21.98;36.92
34983;BME280;21187;50.976;13.720;2023-07-13T23:47:55;98528.09;;;21.57;37.78
34983;BME280;21187;50.976;13.720;2023-07-13T23:52:58;98532.56;;;21.44;38.21
34983;BME280;21187;50.976;13.720;2023-07-13T23:58:02;98528.59;;;21.49;37.79
